createdAt,value
2018-03-28T00:00:18.185Z,99.99
2018-03-28T00:01:18.179Z,99.99
2018-03-28T00:02:18.173Z,99.99
2018-03-28T00:03:18.161Z,99.99
2018-03-28T00:04:18.177Z,99.99
2018-03-28T00:05:18.149Z,99.99
2018-03-28T00:06:18.143Z,99.99
2018-03-28T00:07:18.130Z,99.99
2018-03-28T00:08:18.123Z,99.99
2018-03-28T00:09:18.115Z,99.99
2018-03-28T00:10:18.109Z,99.99
2018-03-28T00:11:18.102Z,99.99
2018-03-28T00:12:18.093Z,99.99
2018-03-28T00:13:18.088Z,99.99
2018-03-28T00:14:18.078Z,99.99
2018-03-28T00:15:18.071Z,99.99
2018-03-28T00:16:18.064Z,99.99
2018-03-28T00:17:18.057Z,99.99
2018-03-28T00:18:18.091Z,99.99
2018-03-28T00:19:18.046Z,99.99
2018-03-28T00:20:18.037Z,99.99
2018-03-28T00:21:18.026Z,99.99
2018-03-28T00:22:18.021Z,99.99
2018-03-28T00:23:18.016Z,99.99
2018-03-28T00:24:18.010Z,99.99
2018-03-28T00:25:18.000Z,99.99
2018-03-28T00:26:17.991Z,99.99
2018-03-28T00:27:17.983Z,99.99
2018-03-28T00:28:17.975Z,99.99
2018-03-28T00:29:17.969Z,99.99
2018-03-28T00:30:17.961Z,99.99
2018-03-28T00:31:17.964Z,99.99
2018-03-28T00:32:17.947Z,99.99
2018-03-28T00:33:17.943Z,99.99
2018-03-28T00:34:17.936Z,99.99
2018-03-28T00:35:17.928Z,99.99
2018-03-28T00:36:17.918Z,99.99
2018-03-28T00:37:17.915Z,99.99
2018-03-28T00:38:17.907Z,99.99
2018-03-28T00:39:17.896Z,99.99
2018-03-28T00:40:17.890Z,99.99
2018-03-28T00:41:17.881Z,99.99
2018-03-28T00:42:17.876Z,99.99
2018-03-28T00:43:17.868Z,99.99
2018-03-28T00:44:17.862Z,99.99
2018-03-28T00:45:17.855Z,99.99
2018-03-28T00:46:17.849Z,99.99
2018-03-28T00:47:17.841Z,99.99
2018-03-28T00:48:17.833Z,99.99
2018-03-28T00:49:17.825Z,99.99
2018-03-28T00:50:17.818Z,99.99
2018-03-28T00:51:17.815Z,99.99
2018-03-28T00:52:17.808Z,99.99
2018-03-28T00:53:17.797Z,99.99
2018-03-28T00:54:17.791Z,99.99
2018-03-28T00:55:17.787Z,99.99
2018-03-28T00:56:17.831Z,99.99
2018-03-28T00:57:17.770Z,99.99
2018-03-28T00:58:17.762Z,99.99
2018-03-28T00:59:17.757Z,99.99
2018-03-28T01:00:17.749Z,99.99
2018-03-28T01:01:17.740Z,99.99
2018-03-28T01:02:17.734Z,99.99
2018-03-28T01:03:17.731Z,99.99
2018-03-28T01:04:17.723Z,99.99
2018-03-28T01:05:17.713Z,99.99
2018-03-28T01:06:17.710Z,99.99
2018-03-28T01:07:17.699Z,99.99
2018-03-28T01:08:17.691Z,99.99
2018-03-28T01:09:17.684Z,99.99
2018-03-28T01:10:17.677Z,99.99
2018-03-28T01:11:17.674Z,99.99
2018-03-28T01:12:17.674Z,99.99
2018-03-28T01:13:17.656Z,99.99
2018-03-28T01:14:17.651Z,99.99
2018-03-28T01:15:17.646Z,99.99
2018-03-28T01:16:17.639Z,99.99
2018-03-28T01:17:17.632Z,99.99
2018-03-28T01:18:17.626Z,99.99
2018-03-28T01:19:17.615Z,99.99
2018-03-28T01:20:17.613Z,99.99
2018-03-28T01:21:17.600Z,99.99
2018-03-28T01:22:17.594Z,99.99
2018-03-28T01:23:17.587Z,99.99
2018-03-28T01:24:17.579Z,99.99
2018-03-28T01:25:17.574Z,99.99
2018-03-28T01:26:17.566Z,99.99
2018-03-28T01:27:17.560Z,99.99
2018-03-28T01:28:17.551Z,99.99
2018-03-28T01:29:17.548Z,99.99
2018-03-28T01:30:17.542Z,99.99
2018-03-28T01:31:17.532Z,99.99
2018-03-28T01:32:17.526Z,99.99
2018-03-28T01:33:17.517Z,99.99
2018-03-28T01:34:17.510Z,99.99
2018-03-28T01:35:17.508Z,99.99
2018-03-28T01:36:17.503Z,99.99
2018-03-28T01:37:17.489Z,99.99
2018-03-28T01:38:17.484Z,99.99
2018-03-28T01:39:17.481Z,99.99
2018-03-28T01:40:17.468Z,99.99
2018-03-28T01:41:17.463Z,99.99
2018-03-28T01:42:17.456Z,99.99
2018-03-28T01:43:17.448Z,99.99
2018-03-28T01:44:17.440Z,99.99
2018-03-28T01:45:17.435Z,99.99
2018-03-28T01:46:17.427Z,99.99
2018-03-28T01:47:17.425Z,99.99
2018-03-28T01:48:17.417Z,99.99
2018-03-28T01:49:17.411Z,99.99
2018-03-28T01:50:17.404Z,99.99
2018-03-28T01:51:17.393Z,99.99
2018-03-28T01:52:17.388Z,99.99
2018-03-28T01:53:17.380Z,99.99
2018-03-28T01:54:17.372Z,99.99
2018-03-28T01:55:17.366Z,99.99
2018-03-28T01:56:17.372Z,99.99
2018-03-28T01:57:17.353Z,99.99
2018-03-28T01:58:17.346Z,99.99
2018-03-28T01:59:17.338Z,99.99
2018-03-28T02:00:17.331Z,99.99
2018-03-28T02:01:17.328Z,99.99
2018-03-28T02:02:17.322Z,99.99
2018-03-28T02:03:17.311Z,99.99
2018-03-28T02:04:17.303Z,99.99
2018-03-28T02:05:17.306Z,99.99
2018-03-28T02:06:17.291Z,99.99
2018-03-28T02:07:17.284Z,99.99
2018-03-28T02:08:17.276Z,99.99
2018-03-28T02:09:17.274Z,99.99
2018-03-28T02:10:17.267Z,99.99
2018-03-28T02:11:17.256Z,99.99
2018-03-28T02:12:17.249Z,99.99
2018-03-28T02:13:17.246Z,99.99
2018-03-28T02:14:17.240Z,99.99
2018-03-28T02:15:17.229Z,99.99
2018-03-28T02:16:17.221Z,99.99
2018-03-28T02:17:17.215Z,99.99
2018-03-28T02:18:17.209Z,99.99
2018-03-28T02:19:17.201Z,99.99
2018-03-28T02:20:17.193Z,99.99
2018-03-28T02:21:17.190Z,99.99
2018-03-28T02:22:17.181Z,99.99
2018-03-28T02:23:17.175Z,99.99
2018-03-28T02:24:17.170Z,99.99
2018-03-28T02:25:17.161Z,99.99
2018-03-28T02:26:17.155Z,99.99
2018-03-28T02:27:17.151Z,99.99
2018-03-28T02:28:17.144Z,99.99
2018-03-28T02:29:17.133Z,99.99
2018-03-28T02:30:17.127Z,99.99
2018-03-28T02:31:17.124Z,99.99
2018-03-28T02:32:17.118Z,99.99
2018-03-28T02:33:17.107Z,99.99
2018-03-28T02:34:17.102Z,99.99
2018-03-28T02:35:17.095Z,99.99
2018-03-28T02:36:17.087Z,99.99
2018-03-28T02:37:17.081Z,99.99
2018-03-28T02:38:17.072Z,99.99
2018-03-28T02:39:17.069Z,99.99
2018-03-28T02:40:17.061Z,99.99
2018-03-28T02:41:17.056Z,99.99
2018-03-28T02:42:17.049Z,99.99
2018-03-28T02:43:17.038Z,99.99
2018-03-28T02:44:17.031Z,99.99
2018-03-28T02:45:17.029Z,99.99
2018-03-28T02:46:17.022Z,99.99
2018-03-28T02:47:17.011Z,99.99
2018-03-28T02:48:17.005Z,99.99
2018-03-28T02:49:16.998Z,99.99
2018-03-28T02:50:16.991Z,99.99
2018-03-28T02:51:16.988Z,99.99
2018-03-28T02:52:16.981Z,99.99
2018-03-28T02:53:16.971Z,99.99
2018-03-28T02:54:16.967Z,99.99
2018-03-28T02:55:16.956Z,99.99
2018-03-28T02:56:16.950Z,99.99
2018-03-28T02:57:16.945Z,99.99
2018-03-28T02:58:16.937Z,99.99
2018-03-28T02:59:16.940Z,99.99
2018-03-28T03:00:16.932Z,99.99
2018-03-28T03:01:16.917Z,99.99
2018-03-28T03:02:16.909Z,99.99
2018-03-28T03:03:16.907Z,99.99
2018-03-28T03:04:16.899Z,99.99
2018-03-28T03:05:16.889Z,99.99
2018-03-28T03:06:16.888Z,99.99
2018-03-28T03:07:16.877Z,99.99
2018-03-28T03:08:16.869Z,99.99
2018-03-28T03:09:16.861Z,99.99
2018-03-28T03:10:16.855Z,99.99
2018-03-28T03:11:16.852Z,99.99
2018-03-28T03:12:16.844Z,99.99
2018-03-28T03:13:16.838Z,99.99
2018-03-28T03:14:16.828Z,99.99
2018-03-28T03:15:16.821Z,99.99
2018-03-28T03:16:16.818Z,99.99
2018-03-28T03:17:16.807Z,99.99
2018-03-28T03:18:16.803Z,99.99
2018-03-28T03:19:16.794Z,99.99
2018-03-28T03:20:16.786Z,99.99
2018-03-28T03:21:16.780Z,99.99
2018-03-28T03:22:16.774Z,99.99
2018-03-28T03:23:16.770Z,99.99
2018-03-28T03:24:16.763Z,99.99
2018-03-28T03:25:16.757Z,99.99
2018-03-28T03:26:16.750Z,99.99
2018-03-28T03:27:16.741Z,99.99
2018-03-28T03:28:16.731Z,99.99
2018-03-28T03:29:16.726Z,99.99
2018-03-28T03:30:16.721Z,99.99
2018-03-28T03:31:16.715Z,99.99
2018-03-28T03:32:16.704Z,99.99
2018-03-28T03:33:16.699Z,99.99
2018-03-28T03:34:16.692Z,99.99
2018-03-28T03:35:16.685Z,99.99
2018-03-28T03:36:16.679Z,99.99
2018-03-28T03:37:16.675Z,99.99
2018-03-28T03:38:16.668Z,99.99
2018-03-28T03:39:16.658Z,99.99
2018-03-28T03:40:16.649Z,99.99
2018-03-28T03:41:16.643Z,99.99
2018-03-28T03:42:16.638Z,99.99
2018-03-28T03:43:16.635Z,99.99
2018-03-28T03:44:16.627Z,99.99
2018-03-28T03:45:16.617Z,99.99
2018-03-28T03:46:16.615Z,99.99
2018-03-28T03:47:16.604Z,99.99
2018-03-28T03:48:16.595Z,99.99
2018-03-28T03:49:16.592Z,99.99
2018-03-28T03:50:16.582Z,99.99
2018-03-28T03:51:16.581Z,99.99
2018-03-28T03:52:16.568Z,99.99
2018-03-28T03:53:16.562Z,99.99
2018-03-28T03:54:16.555Z,99.99
2018-03-28T03:55:16.554Z,99.99
2018-03-28T03:56:16.544Z,99.99
2018-03-28T03:57:16.538Z,99.99
2018-03-28T03:58:16.532Z,99.99
2018-03-28T03:59:16.522Z,99.99
2018-03-28T04:00:16.514Z,99.99
2018-03-28T04:01:16.508Z,99.99
2018-03-28T04:02:16.501Z,99.99
2018-03-28T04:03:16.495Z,99.99
2018-03-28T04:04:16.493Z,99.99
2018-03-28T04:05:16.480Z,99.99
2018-03-28T04:06:16.473Z,99.99
2018-03-28T04:07:16.466Z,99.99
2018-03-28T04:08:16.459Z,99.99
2018-03-28T04:09:16.457Z,99.99
2018-03-28T04:10:16.450Z,99.99
2018-03-28T04:11:16.439Z,99.99
2018-03-28T04:12:16.438Z,99.99
2018-03-28T04:13:16.427Z,99.99
2018-03-28T04:14:16.423Z,99.99
2018-03-28T04:15:16.412Z,99.99
2018-03-28T04:16:16.405Z,99.99
2018-03-28T04:17:16.398Z,99.99
2018-03-28T04:18:16.392Z,99.99
2018-03-28T04:19:16.389Z,99.99
2018-03-28T04:20:16.381Z,99.99
2018-03-28T04:21:16.371Z,99.99
2018-03-28T04:22:16.364Z,99.99
2018-03-28T04:23:16.369Z,99.99
2018-03-28T04:24:16.354Z,99.99
2018-03-28T04:25:16.343Z,99.99
2018-03-28T04:26:16.338Z,99.99
2018-03-28T04:27:16.331Z,99.99
2018-03-28T04:28:16.324Z,99.99
2018-03-28T04:29:16.315Z,99.99
2018-03-28T04:30:16.310Z,99.99
2018-03-28T04:31:16.302Z,99.99
2018-03-28T04:32:16.296Z,99.99
2018-03-28T04:33:16.292Z,99.99
2018-03-28T04:34:16.285Z,99.99
2018-03-28T04:35:16.275Z,99.99
2018-03-28T04:36:16.267Z,99.99
2018-03-28T04:37:16.264Z,99.99
2018-03-28T04:38:16.258Z,99.99
2018-03-28T04:39:16.248Z,99.99
2018-03-28T04:40:16.241Z,99.99
2018-03-28T04:41:16.232Z,99.99
2018-03-28T04:42:16.227Z,99.99
2018-03-28T04:43:16.222Z,99.99
2018-03-28T04:44:16.212Z,99.99
2018-03-28T04:45:16.206Z,99.99
2018-03-28T04:46:16.198Z,99.99
2018-03-28T04:47:16.191Z,99.99
2018-03-28T04:48:16.186Z,99.99
2018-03-28T04:49:16.177Z,99.99
2018-03-28T04:50:16.170Z,99.99
2018-03-28T04:51:16.167Z,99.99
2018-03-28T04:52:16.160Z,99.99
2018-03-28T04:53:16.149Z,99.99
2018-03-28T04:54:16.142Z,99.99
2018-03-28T04:55:16.139Z,99.99
2018-03-28T04:56:16.131Z,99.99
2018-03-28T04:57:16.121Z,99.99
2018-03-28T04:58:16.114Z,99.99
2018-03-28T04:59:16.108Z,99.99
2018-03-28T05:00:16.100Z,99.99
2018-03-28T05:01:16.092Z,99.99
2018-03-28T05:02:16.086Z,99.99
2018-03-28T05:03:16.080Z,99.99
2018-03-28T05:04:16.125Z,99.99
2018-03-28T05:05:16.071Z,99.99
2018-03-28T05:06:16.064Z,99.99
2018-03-28T05:07:16.058Z,99.99
2018-03-28T05:08:16.044Z,99.99
2018-03-28T05:09:16.041Z,99.99
2018-03-28T05:10:16.099Z,99.99
2018-03-28T05:11:16.023Z,99.99
2018-03-28T05:12:16.015Z,99.99
2018-03-28T05:13:16.010Z,99.99
2018-03-28T05:14:16.003Z,99.99
2018-03-28T05:15:15.995Z,99.99
2018-03-28T05:16:15.987Z,99.99
2018-03-28T05:17:15.985Z,99.99
2018-03-28T05:18:15.979Z,99.99
2018-03-28T05:19:15.967Z,99.99
2018-03-28T05:20:15.962Z,99.99
2018-03-28T05:21:15.957Z,99.99
2018-03-28T05:22:15.945Z,99.99
2018-03-28T05:23:15.939Z,99.99
2018-03-28T05:24:15.932Z,99.99
2018-03-28T05:25:15.925Z,99.99
2018-03-28T05:26:15.917Z,99.99
2018-03-28T05:27:15.911Z,99.99
2018-03-28T05:28:15.904Z,99.99
2018-03-28T05:29:15.900Z,99.99
2018-03-28T05:30:15.894Z,99.99
2018-03-28T05:31:15.883Z,99.99
2018-03-28T05:32:15.875Z,99.99
2018-03-28T05:33:15.868Z,99.99
2018-03-28T05:34:15.861Z,99.99
2018-03-28T05:35:15.859Z,99.99
2018-03-28T05:36:15.851Z,99.99
2018-03-28T05:37:15.842Z,99.99
2018-03-28T05:38:15.837Z,99.99
2018-03-28T05:39:15.826Z,99.99
2018-03-28T05:40:15.820Z,99.99
2018-03-28T05:41:15.813Z,99.99
2018-03-28T05:42:15.806Z,99.99
2018-03-28T05:43:15.799Z,99.99
2018-03-28T05:44:15.791Z,99.99
2018-03-28T05:45:15.783Z,99.99
2018-03-28T05:46:15.778Z,99.99
2018-03-28T05:47:15.775Z,99.99
2018-03-28T05:48:15.767Z,99.99
2018-03-28T05:49:15.760Z,99.99
2018-03-28T05:50:15.754Z,99.99
2018-03-28T05:51:15.744Z,99.99
2018-03-28T05:52:15.735Z,99.99
2018-03-28T05:53:15.728Z,99.99
2018-03-28T05:54:15.722Z,99.99
2018-03-28T05:55:15.716Z,99.99
2018-03-28T05:56:15.708Z,99.99
2018-03-28T05:57:15.700Z,99.99
2018-03-28T05:58:15.694Z,99.99
2018-03-28T05:59:15.687Z,99.99
2018-03-28T06:00:15.680Z,99.99
2018-03-28T06:01:15.681Z,99.99
2018-03-28T06:02:15.671Z,99.99
2018-03-28T06:03:15.659Z,99.99
2018-03-28T06:04:15.653Z,99.99
2018-03-28T06:05:15.644Z,99.99
2018-03-28T06:06:15.639Z,99.99
2018-03-28T06:07:15.635Z,99.99
2018-03-28T06:08:15.628Z,99.99
2018-03-28T06:09:15.617Z,99.99
2018-03-28T06:10:15.610Z,99.99
2018-03-28T06:11:15.604Z,99.99
2018-03-28T06:12:15.597Z,99.99
2018-03-28T06:13:15.589Z,99.99
2018-03-28T06:14:15.583Z,99.99
2018-03-28T06:15:15.576Z,99.99
2018-03-28T06:16:15.569Z,99.99
2018-03-28T06:17:15.562Z,99.99
2018-03-28T06:18:15.555Z,99.99
2018-03-28T06:19:15.552Z,99.99
2018-03-28T06:20:15.548Z,99.99
2018-03-28T06:21:15.535Z,99.99
2018-03-28T06:22:15.528Z,99.99
2018-03-28T06:23:15.521Z,99.99
2018-03-28T06:24:15.515Z,99.99
2018-03-28T06:25:15.507Z,99.99
2018-03-28T06:26:15.502Z,99.99
2018-03-28T06:27:15.499Z,99.99
2018-03-28T06:28:15.491Z,99.99
2018-03-28T06:29:15.480Z,99.99
2018-03-28T06:30:15.473Z,99.99
2018-03-28T06:31:15.470Z,99.99
2018-03-28T06:32:15.466Z,99.99
2018-03-28T06:33:15.454Z,99.99
2018-03-28T06:34:15.452Z,99.99
2018-03-28T06:35:15.440Z,99.99
2018-03-28T06:36:15.440Z,99.99
2018-03-28T06:37:15.427Z,99.99
2018-03-28T06:38:15.421Z,99.99
2018-03-28T06:39:15.414Z,99.99
2018-03-28T06:40:15.405Z,99.99
2018-03-28T06:41:15.404Z,99.99
2018-03-28T06:42:15.398Z,99.99
2018-03-28T06:43:15.387Z,99.99
2018-03-28T06:44:15.386Z,99.99
2018-03-28T06:45:15.376Z,99.99
2018-03-28T06:46:15.371Z,99.99
2018-03-28T06:47:15.413Z,99.99
2018-03-28T06:48:15.352Z,99.99
2018-03-28T06:49:15.346Z,99.99
2018-03-28T06:50:15.341Z,99.99
2018-03-28T06:51:15.334Z,99.99
2018-03-28T06:52:15.350Z,99.99
2018-03-28T06:53:15.324Z,99.99
2018-03-28T06:54:15.316Z,99.99
2018-03-28T06:55:15.308Z,99.99
2018-03-28T06:56:15.301Z,99.99
2018-03-28T06:57:15.293Z,99.99
2018-03-28T06:58:15.286Z,99.99
2018-03-28T06:59:15.285Z,99.99
2018-03-28T07:00:15.284Z,99.99
2018-03-28T07:01:15.268Z,99.99
2018-03-28T07:02:15.262Z,99.99
2018-03-28T07:03:15.260Z,99.99
2018-03-28T07:04:15.252Z,99.99
2018-03-28T07:05:15.244Z,99.99
2018-03-28T07:06:15.237Z,99.99
2018-03-28T07:07:15.231Z,99.99
2018-03-28T07:08:15.228Z,99.99
2018-03-28T07:09:15.219Z,99.99
2018-03-28T07:10:15.212Z,99.99
2018-03-28T07:11:15.209Z,99.99
2018-03-28T07:12:15.202Z,99.99
2018-03-28T07:13:15.198Z,99.99
2018-03-28T07:14:15.193Z,99.99
2018-03-28T07:15:15.186Z,99.99
2018-03-28T07:16:15.177Z,99.99
2018-03-28T07:17:15.176Z,99.99
2018-03-28T07:18:15.172Z,99.99
2018-03-28T07:19:15.162Z,99.99
2018-03-28T07:20:15.154Z,99.99
2018-03-28T07:21:15.150Z,99.99
2018-03-28T07:22:15.144Z,99.99
2018-03-28T07:23:15.139Z,99.99
2018-03-28T07:24:15.134Z,99.99
2018-03-28T07:25:15.131Z,99.99
2018-03-28T07:26:15.127Z,99.99
2018-03-28T07:27:15.118Z,99.99
2018-03-28T07:28:15.114Z,99.99
2018-03-28T07:29:15.108Z,99.99
2018-03-28T07:30:15.102Z,99.99
2018-03-28T07:31:15.098Z,99.99
2018-03-28T07:32:15.093Z,99.99
2018-03-28T07:33:15.087Z,99.99
2018-03-28T07:34:15.110Z,99.99
2018-03-28T07:35:15.077Z,99.99
2018-03-28T07:36:15.072Z,99.99
2018-03-28T07:37:15.070Z,99.99
2018-03-28T07:38:15.065Z,99.99
2018-03-28T07:39:15.058Z,99.99
2018-03-28T07:40:15.052Z,99.99
2018-03-28T07:41:15.048Z,99.99
2018-03-28T07:42:15.044Z,99.99
2018-03-28T07:43:15.043Z,99.99
2018-03-28T07:44:15.040Z,99.99
2018-03-28T07:45:15.030Z,99.99
2018-03-28T07:46:15.026Z,99.99
2018-03-28T07:47:15.022Z,99.99
2018-03-28T07:48:15.017Z,99.99
2018-03-28T07:49:15.011Z,99.99
2018-03-28T07:50:15.008Z,99.99
2018-03-28T07:51:15.005Z,99.99
2018-03-28T07:52:15.000Z,99.99
2018-03-28T07:53:14.996Z,99.99
2018-03-28T07:54:14.993Z,99.99
2018-03-28T07:55:14.991Z,99.99
2018-03-28T07:56:14.987Z,99.99
2018-03-28T07:57:14.982Z,99.99
2018-03-28T07:58:14.979Z,99.99
2018-03-28T07:59:14.971Z,99.99
2018-03-28T08:00:14.966Z,99.99
2018-03-28T08:01:14.962Z,99.99
2018-03-28T08:02:14.960Z,99.99
2018-03-28T08:03:14.956Z,99.99
2018-03-28T08:04:14.952Z,99.99
2018-03-28T08:05:14.949Z,99.99
2018-03-28T08:06:14.944Z,99.99
2018-03-28T08:07:14.941Z,99.99
2018-03-28T08:08:14.937Z,99.99
2018-03-28T08:09:14.938Z,99.99
2018-03-28T08:10:14.936Z,99.99
2018-03-28T08:11:14.928Z,99.99
2018-03-28T08:12:14.923Z,99.99
2018-03-28T08:13:14.920Z,99.99
2018-03-28T08:14:14.918Z,99.99
2018-03-28T08:15:14.918Z,99.99
2018-03-28T08:16:14.914Z,99.99
2018-03-28T08:17:14.908Z,99.99
2018-03-28T08:18:14.904Z,99.99
2018-03-28T08:19:14.908Z,99.99
2018-03-28T08:20:14.899Z,99.99
2018-03-28T08:21:14.897Z,99.99
2018-03-28T08:22:14.891Z,99.99
2018-03-28T08:23:14.887Z,99.99
2018-03-28T08:24:14.883Z,99.99
2018-03-28T08:25:14.881Z,99.99
2018-03-28T08:26:14.883Z,99.99
2018-03-28T08:27:14.877Z,99.99
2018-03-28T08:28:14.873Z,99.99
2018-03-28T08:29:14.870Z,99.99
2018-03-28T08:30:14.865Z,99.99
2018-03-28T08:31:14.859Z,99.99
2018-03-28T08:32:14.854Z,99.99
2018-03-28T08:33:14.851Z,99.99
2018-03-28T08:34:14.848Z,99.99
2018-03-28T08:35:14.843Z,99.99
2018-03-28T08:36:14.840Z,99.99
2018-03-28T08:37:14.836Z,99.99
2018-03-28T08:38:14.833Z,99.99
2018-03-28T08:39:14.837Z,99.99
2018-03-28T08:40:14.826Z,99.99
2018-03-28T08:41:14.825Z,99.99
2018-03-28T08:42:14.822Z,99.99
2018-03-28T08:43:14.815Z,99.99
2018-03-28T08:44:14.811Z,99.99
2018-03-28T08:45:14.806Z,99.99
2018-03-28T08:46:14.803Z,99.99
2018-03-28T08:47:14.804Z,99.99
2018-03-28T08:48:14.799Z,99.99
2018-03-28T08:49:14.793Z,99.99
2018-03-28T08:50:14.788Z,99.99
2018-03-28T08:51:14.784Z,99.99
2018-03-28T08:52:14.826Z,99.99
2018-03-28T08:53:14.776Z,99.99
2018-03-28T08:54:14.773Z,99.99
2018-03-28T08:55:14.770Z,99.99
2018-03-28T08:56:14.765Z,99.99
2018-03-28T08:57:14.761Z,99.99
2018-03-28T08:58:14.756Z,99.99
2018-03-28T08:59:14.757Z,99.99
2018-03-28T09:00:14.752Z,99.99
2018-03-28T09:01:14.748Z,99.99
2018-03-28T09:02:14.744Z,99.99
2018-03-28T09:03:14.737Z,99.99
2018-03-28T09:04:14.732Z,99.99
2018-03-28T09:05:14.728Z,99.99
2018-03-28T09:06:14.726Z,99.99
2018-03-28T09:07:14.722Z,99.99
2018-03-28T09:08:14.717Z,99.99
2018-03-28T09:09:14.714Z,99.99
2018-03-28T09:10:14.710Z,99.99
2018-03-28T09:11:14.706Z,99.99
2018-03-28T09:12:14.702Z,99.99
2018-03-28T09:13:14.701Z,99.99
2018-03-28T09:14:14.697Z,99.99
2018-03-28T09:15:14.691Z,99.99
2018-03-28T09:16:14.685Z,99.99
2018-03-28T09:17:14.681Z,99.99
2018-03-28T09:18:14.692Z,99.99
2018-03-28T09:19:14.729Z,99.99
2018-03-28T09:20:14.673Z,99.99
2018-03-28T09:21:14.670Z,99.99
2018-03-28T09:22:14.661Z,99.99
2018-03-28T09:23:14.658Z,99.99
2018-03-28T09:24:14.653Z,99.99
2018-03-28T09:25:14.649Z,99.99
2018-03-28T09:26:14.644Z,99.99
2018-03-28T09:27:14.640Z,99.99
2018-03-28T09:28:14.637Z,99.99
2018-03-28T09:29:14.631Z,99.99
2018-03-28T09:30:14.627Z,99.99
2018-03-28T09:31:14.628Z,99.99
2018-03-28T09:32:14.625Z,99.99
2018-03-28T09:33:14.623Z,99.99
2018-03-28T09:34:14.610Z,99.99
2018-03-28T09:35:14.611Z,99.99
2018-03-28T09:36:14.602Z,99.99
2018-03-28T09:37:14.597Z,99.99
2018-03-28T09:38:14.592Z,99.99
2018-03-28T09:39:14.592Z,99.99
2018-03-28T09:40:14.589Z,99.99
2018-03-28T09:41:14.578Z,99.99
2018-03-28T09:42:14.575Z,99.99
2018-03-28T09:43:14.574Z,99.99
2018-03-28T09:44:14.568Z,99.99
2018-03-28T09:45:14.560Z,99.99
2018-03-28T09:46:14.558Z,99.99
2018-03-28T09:47:14.551Z,99.99
2018-03-28T09:48:14.546Z,99.99
2018-03-28T09:49:14.542Z,99.99
2018-03-28T09:50:14.537Z,99.99
2018-03-28T09:51:14.534Z,99.99
2018-03-28T09:52:14.529Z,99.99
2018-03-28T09:53:14.527Z,99.99
2018-03-28T09:54:14.523Z,99.99
2018-03-28T09:55:14.518Z,99.99
2018-03-28T09:56:14.510Z,99.99
2018-03-28T09:57:14.510Z,99.99
2018-03-28T09:58:14.505Z,99.99
2018-03-28T09:59:14.497Z,99.99
2018-03-28T10:00:14.493Z,99.99
2018-03-28T10:01:14.489Z,99.99
2018-03-28T10:02:14.491Z,99.99
2018-03-28T10:03:14.481Z,99.99
2018-03-28T10:04:14.475Z,99.99
2018-03-28T10:05:14.473Z,99.99
2018-03-28T10:06:14.469Z,99.99
2018-03-28T10:07:14.464Z,99.99
2018-03-28T10:08:14.459Z,99.99
2018-03-28T10:09:14.475Z,99.99
2018-03-28T10:10:14.452Z,99.99
2018-03-28T10:11:14.452Z,99.99
2018-03-28T10:12:14.449Z,99.99
2018-03-28T10:13:14.444Z,99.99
2018-03-28T10:14:14.438Z,99.99
2018-03-28T10:15:14.438Z,99.99
2018-03-28T10:16:14.432Z,99.99
2018-03-28T10:17:14.427Z,99.99
2018-03-28T10:18:14.420Z,99.99
2018-03-28T10:19:14.427Z,99.99
2018-03-28T10:20:14.412Z,99.99
2018-03-28T10:21:14.408Z,99.99
2018-03-28T10:22:14.411Z,99.99
2018-03-28T10:23:14.401Z,99.99
2018-03-28T10:24:14.397Z,99.99
2018-03-28T10:25:14.397Z,99.99
2018-03-28T10:26:14.393Z,99.99
2018-03-28T10:27:14.386Z,99.52
2018-03-28T10:28:14.382Z,99.90
2018-03-28T10:29:14.380Z,99.23
2018-03-28T10:30:14.378Z,98.70
2018-03-28T10:31:14.369Z,99.37
2018-03-28T10:32:14.365Z,99.66
2018-03-28T10:33:14.361Z,99.66
2018-03-28T10:34:14.358Z,99.08
2018-03-28T10:35:14.354Z,99.99
2018-03-28T10:36:14.350Z,99.56
2018-03-28T10:37:14.351Z,99.46
2018-03-28T10:38:14.346Z,99.95
2018-03-28T10:39:14.342Z,99.95
2018-03-28T10:40:14.334Z,99.56
2018-03-28T10:41:14.338Z,99.37
2018-03-28T10:42:14.327Z,99.75
2018-03-28T10:43:14.322Z,99.46
2018-03-28T10:44:14.318Z,99.66
2018-03-28T10:45:14.314Z,98.99
2018-03-28T10:46:14.311Z,99.75
2018-03-28T10:47:14.309Z,98.90
2018-03-28T10:48:14.301Z,98.90
2018-03-28T10:49:14.302Z,99.08
2018-03-28T10:50:14.297Z,98.99
2018-03-28T10:51:14.289Z,98.51
2018-03-28T10:52:14.284Z,99.37
2018-03-28T10:53:14.281Z,98.32
2018-03-28T10:54:14.276Z,98.42
2018-03-28T10:55:14.277Z,98.13
2018-03-28T10:56:14.271Z,97.75
2018-03-28T10:57:14.264Z,97.66
2018-03-28T10:58:14.261Z,96.70
2018-03-28T10:59:14.257Z,96.61
2018-03-28T11:00:14.250Z,96.80
2018-03-28T11:01:14.247Z,97.46
2018-03-28T11:02:14.242Z,97.56
2018-03-28T11:03:14.238Z,97.37
2018-03-28T11:04:14.233Z,97.56
2018-03-28T11:05:14.228Z,97.46
2018-03-28T11:06:14.224Z,97.27
2018-03-28T11:07:14.224Z,97.27
2018-03-28T11:08:14.219Z,97.08
2018-03-28T11:09:14.215Z,97.37
2018-03-28T11:10:14.211Z,96.89
2018-03-28T11:11:14.203Z,97.32
2018-03-28T11:12:14.198Z,97.08
2018-03-28T11:13:14.198Z,97.85
2018-03-28T11:14:14.191Z,98.47
2018-03-28T11:15:14.184Z,98.13
2018-03-28T11:16:14.183Z,98.42
2018-03-28T11:17:14.176Z,97.85
2018-03-28T11:18:14.173Z,98.61
2018-03-28T11:19:14.173Z,98.22
2018-03-28T11:20:14.163Z,98.13
2018-03-28T11:21:14.163Z,98.51
2018-03-28T11:22:14.158Z,99.75
2018-03-28T11:23:14.150Z,99.66
2018-03-28T11:24:14.144Z,99.99
2018-03-28T11:25:14.142Z,99.37
2018-03-28T11:26:14.138Z,99.99
2018-03-28T11:27:14.138Z,99.99
2018-03-28T11:28:14.135Z,99.99
2018-03-28T11:29:14.124Z,99.99
2018-03-28T11:30:14.119Z,99.99
2018-03-28T11:31:14.117Z,99.99
2018-03-28T11:32:14.110Z,99.99
2018-03-28T11:33:14.106Z,99.99
2018-03-28T11:34:14.109Z,99.99
2018-03-28T11:35:14.099Z,99.99
2018-03-28T11:36:14.094Z,99.99
2018-03-28T11:37:14.088Z,99.99
2018-03-28T11:38:14.085Z,99.99
2018-03-28T11:39:14.090Z,99.99
2018-03-28T11:40:14.079Z,99.99
2018-03-28T11:41:14.071Z,99.99
2018-03-28T11:42:14.068Z,99.99
2018-03-28T11:43:14.064Z,99.99
2018-03-28T11:44:14.058Z,99.99
2018-03-28T11:45:14.054Z,99.99
2018-03-28T11:46:14.049Z,99.99
2018-03-28T11:47:14.049Z,99.99
2018-03-28T11:48:14.046Z,99.99
2018-03-28T11:49:14.036Z,99.99
2018-03-28T11:50:14.032Z,99.99
2018-03-28T11:51:14.032Z,99.99
2018-03-28T11:52:14.028Z,99.99
2018-03-28T11:53:14.020Z,99.80
2018-03-28T11:54:14.021Z,99.23
2018-03-28T11:55:14.012Z,99.61
2018-03-28T11:56:14.008Z,99.27
2018-03-28T11:57:14.004Z,98.22
2018-03-28T11:58:14.001Z,98.22
2018-03-28T11:59:13.997Z,98.03
2018-03-28T12:00:13.991Z,97.85
2018-03-28T12:01:13.998Z,99.37
2018-03-28T12:02:13.988Z,99.95
2018-03-28T12:03:13.981Z,99.46
2018-03-28T12:04:13.976Z,99.99
2018-03-28T12:05:13.978Z,99.66
2018-03-28T12:06:13.972Z,99.99
2018-03-28T12:07:13.964Z,99.99
2018-03-28T12:08:13.958Z,99.99
2018-03-28T12:09:13.955Z,99.99
2018-03-28T12:10:13.950Z,99.99
2018-03-28T12:11:13.952Z,99.99
2018-03-28T12:12:13.942Z,99.99
2018-03-28T12:13:13.937Z,99.99
2018-03-28T12:14:13.964Z,99.99
2018-03-28T12:15:13.930Z,99.99
2018-03-28T12:16:13.925Z,99.99
2018-03-28T12:17:13.920Z,99.99
2018-03-28T12:18:13.915Z,99.99
2018-03-28T12:19:13.920Z,99.99
2018-03-28T12:20:13.910Z,99.99
2018-03-28T12:21:13.902Z,99.99
2018-03-28T12:22:13.902Z,99.99
2018-03-28T12:23:13.897Z,99.99
2018-03-28T12:24:13.892Z,99.99
2018-03-28T12:25:13.903Z,99.99
2018-03-28T12:26:13.880Z,99.99
2018-03-28T12:27:13.875Z,99.99
2018-03-28T12:28:13.871Z,99.99
2018-03-28T12:29:13.866Z,99.99
2018-03-28T12:30:13.861Z,99.99
2018-03-28T12:31:13.857Z,99.99
2018-03-28T12:32:13.852Z,99.99
2018-03-28T12:33:13.852Z,99.99
2018-03-28T12:34:13.846Z,99.99
2018-03-28T12:35:13.843Z,99.99
2018-03-28T12:36:13.832Z,99.99
2018-03-28T12:37:13.832Z,99.99
2018-03-28T12:38:13.827Z,99.99
2018-03-28T12:39:13.820Z,99.99
2018-03-28T12:40:13.816Z,99.99
2018-03-28T12:41:13.809Z,99.99
2018-03-28T12:42:13.805Z,99.99
2018-03-28T12:43:13.800Z,99.99
2018-03-28T12:44:13.794Z,99.99
2018-03-28T12:45:13.793Z,99.99
2018-03-28T12:46:13.792Z,99.99
2018-03-28T12:47:13.786Z,99.99
2018-03-28T12:48:13.775Z,99.99
2018-03-28T12:49:13.772Z,99.99
2018-03-28T12:50:13.767Z,99.99
2018-03-28T12:51:13.781Z,99.99
2018-03-28T12:52:13.895Z,99.99